createdAt,value
2022-10-30T00:03:29.229Z,16.60
2022-10-30T00:07:59.149Z,16.20
2022-10-30T00:12:24.856Z,14.40
2022-10-30T00:16:50.182Z,14.53
2022-10-30T00:21:16.309Z,14.77
2022-10-30T00:25:41.643Z,15.97
2022-10-30T00:30:07.858Z,15.10
2022-10-30T00:34:33.144Z,13.80
2022-10-30T00:38:58.347Z,15.20
2022-10-30T00:43:40.798Z,13.93
2022-10-30T00:48:06.121Z,13.80
2022-10-30T00:52:37.808Z,14.17
2022-10-30T00:57:07.388Z,12.97
2022-10-30T01:01:38.113Z,16.50
2022-10-30T01:06:09.147Z,17.27
2022-10-30T01:10:34.439Z,15.40
2022-10-30T01:15:01.473Z,15.77
2022-10-30T01:20:06.437Z,15.60
2022-10-30T01:24:45.486Z,14.20
2022-10-30T01:43:10.027Z,16.37
2022-10-30T01:47:56.880Z,16.60
2022-10-30T01:52:44.162Z,16.30
2022-10-30T01:57:28.569Z,16.77
2022-10-30T02:01:54.078Z,15.80
2022-10-30T02:15:12.521Z,16.77
2022-10-30T02:19:38.251Z,16.93
2022-10-30T02:37:19.079Z,15.97
2022-10-30T02:41:44.272Z,15.13
2022-10-30T02:46:09.486Z,16.80
2022-10-30T02:50:34.701Z,15.40
2022-10-30T02:54:59.903Z,15.40
2022-10-30T02:59:25.077Z,15.23
2022-10-30T03:17:05.621Z,15.70
2022-10-30T03:21:30.865Z,15.60
2022-10-30T03:25:58.476Z,15.20
2022-10-30T03:30:23.663Z,15.40
2022-10-30T03:34:48.886Z,15.40
2022-10-30T03:39:14.089Z,14.20
2022-10-30T03:43:39.325Z,13.10
2022-10-30T03:48:06.447Z,13.70
2022-10-30T03:52:31.633Z,14.90
2022-10-30T03:56:56.922Z,14.70
2022-10-30T04:01:22.365Z,14.67
2022-10-30T04:05:51.014Z,13.27
2022-10-30T04:10:20.946Z,12.70
2022-10-30T04:14:49.041Z,12.90
2022-10-30T04:19:14.314Z,12.70
2022-10-30T04:23:39.491Z,12.40
2022-10-30T04:28:05.293Z,15.23
2022-10-30T04:32:30.583Z,14.70
2022-10-30T04:36:55.775Z,12.83
2022-10-30T04:41:20.980Z,14.70
2022-10-30T04:45:46.160Z,14.70
2022-10-30T04:50:11.867Z,15.70
2022-10-30T04:54:37.083Z,15.30
2022-10-30T04:59:02.419Z,16.87
2022-10-30T05:03:27.642Z,15.63
2022-10-30T05:07:52.919Z,14.57
2022-10-30T05:12:19.496Z,16.57
2022-10-30T05:16:44.737Z,15.83
2022-10-30T05:21:09.933Z,15.20
2022-10-30T05:25:35.424Z,17.20
2022-10-30T05:30:00.705Z,16.67
2022-10-30T05:34:25.956Z,15.60
2022-10-30T05:38:51.206Z,14.23
2022-10-30T05:43:16.479Z,15.10
2022-10-30T05:47:41.789Z,18.07
2022-10-30T05:52:06.966Z,18.47
2022-10-30T05:56:32.227Z,17.50
2022-10-30T06:00:57.639Z,17.30
2022-10-30T06:05:22.820Z,17.63
2022-10-30T06:09:48.062Z,16.53
2022-10-30T06:14:13.313Z,17.43
2022-10-30T06:18:38.544Z,18.57
2022-10-30T06:23:07.389Z,17.13
2022-10-30T06:27:35.428Z,17.00
2022-10-30T06:32:03.838Z,15.80
2022-10-30T06:36:31.909Z,15.50
2022-10-30T06:40:57.655Z,17.43
2022-10-30T06:45:23.948Z,16.33
2022-10-30T06:49:49.184Z,15.87
2022-10-30T06:54:14.351Z,15.60
2022-10-30T06:58:39.539Z,16.47
2022-10-30T07:03:06.636Z,15.07
2022-10-30T07:07:31.885Z,15.43
2022-10-30T07:11:57.663Z,15.53
2022-10-30T07:16:24.688Z,17.10
2022-10-30T07:20:56.191Z,17.00
2022-10-30T07:25:22.330Z,17.13
2022-10-30T07:29:47.536Z,18.10
2022-10-30T07:34:12.780Z,16.33
2022-10-30T07:38:38.203Z,17.43
2022-10-30T07:43:04.997Z,18.30
2022-10-30T07:47:30.220Z,17.33
2022-10-30T07:51:55.457Z,16.20
2022-10-30T07:56:20.796Z,17.23
2022-10-30T08:00:46.209Z,16.33
2022-10-30T08:05:11.497Z,17.60
2022-10-30T08:09:36.651Z,17.30
2022-10-30T08:14:02.147Z,16.80
2022-10-30T08:18:27.446Z,17.13
2022-10-30T08:22:55.791Z,18.03
2022-10-30T08:27:21.237Z,16.80
2022-10-30T08:31:49.484Z,17.77
2022-10-30T08:36:14.873Z,17.97
2022-10-30T08:40:40.099Z,18.10
2022-10-30T09:02:47.185Z,17.37
2022-10-30T09:07:13.162Z,15.33
2022-10-30T09:11:38.595Z,15.10
2022-10-30T09:16:04.694Z,13.83
2022-10-30T09:20:31.121Z,13.97
2022-10-30T09:24:56.345Z,12.40
2022-10-30T09:29:21.883Z,12.67
2022-10-30T09:33:47.093Z,12.43
2022-10-30T09:38:13.098Z,12.47
2022-10-30T09:42:45.005Z,12.07
2022-10-30T09:47:38.008Z,11.50
2022-10-30T09:52:43.434Z,10.83
2022-10-30T09:57:36.624Z,10.60
2022-10-30T10:02:17.587Z,10.10
2022-10-30T10:06:47.129Z,10.00
2022-10-30T10:11:27.615Z,12.03
2022-10-30T10:16:05.074Z,11.57
2022-10-30T10:20:59.578Z,10.43
2022-10-30T10:25:25.819Z,10.23
2022-10-30T10:30:10.510Z,10.33
2022-10-30T10:53:55.868Z,9.50
2022-10-30T12:24:06.898Z,7.17
2022-10-30T12:33:07.463Z,7.10
2022-10-30T12:51:41.089Z,7.93
2022-10-30T12:56:42.821Z,7.90
2022-10-30T13:01:11.267Z,7.87
2022-10-30T13:24:13.062Z,7.50
2022-10-30T13:28:54.293Z,7.25
2022-10-30T13:48:28.630Z,9.17
2022-10-30T13:52:58.801Z,8.00
2022-10-30T13:58:20.453Z,8.03
2022-10-30T14:03:35.869Z,7.60
2022-10-30T14:08:09.429Z,7.93
2022-10-30T16:52:37.544Z,8.60
2022-10-30T16:57:12.570Z,8.90
2022-10-30T17:01:38.711Z,7.90
2022-10-30T17:06:39.764Z,8.30
2022-10-30T17:11:09.798Z,9.90
2022-10-30T17:15:42.572Z,9.00
2022-10-30T17:34:19.630Z,9.07
2022-10-30T17:38:44.846Z,9.03
2022-10-30T17:43:16.715Z,8.87
2022-10-30T17:47:42.040Z,8.83
2022-10-30T17:52:10.716Z,13.30
2022-10-30T18:05:30.138Z,11.33
2022-10-30T18:36:55.505Z,11.70
2022-10-30T18:41:34.884Z,11.23
2022-10-30T18:46:00.152Z,12.20
2022-10-30T18:50:25.560Z,14.77
2022-10-30T18:54:50.747Z,13.47
2022-10-30T18:59:16.022Z,11.80
2022-10-30T19:03:42.329Z,11.43
2022-10-30T19:08:07.769Z,12.20
2022-10-30T19:12:35.613Z,12.43
2022-10-30T19:17:03.728Z,12.00
2022-10-30T19:21:32.081Z,14.00
2022-10-30T19:25:57.388Z,12.73
2022-10-30T19:30:24.074Z,13.10
2022-10-30T19:34:49.324Z,13.60
2022-10-30T19:39:18.287Z,14.07
2022-10-30T19:43:43.612Z,15.10
2022-10-30T19:48:24.860Z,15.00
2022-10-30T19:53:02.370Z,12.13
2022-10-30T19:57:27.948Z,12.20
2022-10-30T20:01:53.306Z,13.80
2022-10-30T20:06:19.294Z,14.20
2022-10-30T20:10:57.406Z,14.10
2022-10-30T20:15:23.017Z,13.73
2022-10-30T20:19:48.601Z,13.93
2022-10-30T20:24:13.834Z,13.80
2022-10-30T20:28:41.705Z,13.57
2022-10-30T20:33:11.520Z,13.30
2022-10-30T20:37:36.944Z,14.70
2022-10-30T20:42:02.340Z,15.43
2022-10-30T20:46:27.648Z,22.80
2022-10-30T20:50:57.628Z,19.60
2022-10-30T20:55:22.911Z,17.50
2022-10-30T20:59:48.209Z,17.00
2022-10-30T21:04:13.611Z,16.40
2022-10-30T21:08:38.869Z,14.70
2022-10-30T21:13:08.473Z,14.80
2022-10-30T21:17:35.184Z,13.63
2022-10-30T21:22:00.473Z,16.77
2022-10-30T21:26:25.732Z,17.83
2022-10-30T21:30:51.012Z,15.47
2022-10-30T21:35:16.881Z,15.90
2022-10-30T21:39:42.108Z,15.97
2022-10-30T21:44:07.426Z,16.40
2022-10-30T21:48:32.614Z,17.27
2022-10-30T21:52:58.123Z,15.50
2022-10-30T21:57:23.551Z,15.60
2022-10-30T22:01:48.896Z,14.50
2022-10-30T22:06:18.679Z,13.97
2022-10-30T22:10:43.856Z,15.17
2022-10-30T22:15:10.003Z,14.83
2022-10-30T22:19:35.199Z,15.17
2022-10-30T22:24:01.805Z,15.07
2022-10-30T22:28:29.103Z,15.07
2022-10-30T22:32:54.330Z,16.80
2022-10-30T22:37:19.508Z,14.90
2022-10-30T22:41:44.711Z,14.67
2022-10-30T22:46:10.843Z,13.60
